createdAt,value
2018-03-18T00:00:40.218Z,1002.80
2018-03-18T00:01:40.202Z,1002.73
2018-03-18T00:02:40.188Z,1002.77
2018-03-18T00:03:40.172Z,1002.74
2018-03-18T00:04:40.154Z,1002.64
2018-03-18T00:05:40.138Z,1002.68
2018-03-18T00:06:40.125Z,1003.02
2018-03-18T00:07:40.116Z,1002.80
2018-03-18T00:08:40.093Z,1002.77
2018-03-18T00:09:40.078Z,1002.71
2018-03-18T00:10:40.063Z,1002.77
2018-03-18T00:11:40.048Z,1002.76
2018-03-18T00:12:40.033Z,1002.73
2018-03-18T00:13:40.016Z,1002.86
2018-03-18T00:14:40.002Z,1002.79
2018-03-18T00:15:39.985Z,1002.91
2018-03-18T00:16:39.970Z,1002.86
2018-03-18T00:17:39.956Z,1002.77
2018-03-18T00:18:39.934Z,1002.73
2018-03-18T00:19:39.921Z,1002.68
2018-03-18T00:20:39.908Z,1002.84
2018-03-18T00:21:39.897Z,1002.67
2018-03-18T00:22:39.874Z,1002.86
2018-03-18T00:23:39.861Z,1002.75
2018-03-18T00:24:39.843Z,1002.49
2018-03-18T00:25:39.829Z,1002.84
2018-03-18T00:26:39.813Z,1002.89
2018-03-18T00:27:39.796Z,1002.89
2018-03-18T00:28:39.781Z,1002.88
2018-03-18T00:29:39.767Z,1002.82
2018-03-18T00:30:39.751Z,1002.89
2018-03-18T00:31:39.737Z,1002.88
2018-03-18T00:32:39.719Z,1002.81
2018-03-18T00:33:39.705Z,1002.88
2018-03-18T00:34:39.685Z,1002.93
2018-03-18T00:35:39.674Z,1002.95
2018-03-18T00:36:39.658Z,1002.84
2018-03-18T00:37:39.644Z,1002.83
2018-03-18T00:38:39.627Z,1003.01
2018-03-18T00:39:39.610Z,1002.88
2018-03-18T00:40:39.595Z,1002.72
2018-03-18T00:41:39.580Z,1003.04
2018-03-18T00:42:39.567Z,1002.89
2018-03-18T00:43:39.551Z,1002.88
2018-03-18T00:44:39.532Z,1002.86
2018-03-18T00:45:39.518Z,1002.93
2018-03-18T00:46:39.499Z,1002.98
2018-03-18T00:47:39.489Z,1002.95
2018-03-18T00:48:39.501Z,1002.88
2018-03-18T00:49:39.456Z,1002.97
2018-03-18T00:50:39.439Z,1003.09
2018-03-18T00:51:39.422Z,1003.07
2018-03-18T00:52:39.432Z,1002.78
2018-03-18T00:53:39.392Z,1003.03
2018-03-18T00:54:39.372Z,1002.87
2018-03-18T00:55:39.360Z,1002.96
2018-03-18T00:56:39.345Z,1003.08
2018-03-18T00:57:39.329Z,1002.86
2018-03-18T00:58:39.313Z,1002.91
2018-03-18T00:59:39.301Z,1002.89
2018-03-18T01:00:39.283Z,1002.91
2018-03-18T01:01:39.268Z,1002.99
2018-03-18T01:02:39.257Z,1002.95
2018-03-18T01:03:39.233Z,1003.09
2018-03-18T01:04:39.223Z,1002.96
2018-03-18T01:05:39.204Z,1002.94
2018-03-18T01:06:39.188Z,1002.93
2018-03-18T01:07:39.173Z,1002.92
2018-03-18T01:08:39.161Z,1002.97
2018-03-18T01:09:39.138Z,1002.93
2018-03-18T01:10:39.124Z,1002.97
2018-03-18T01:11:39.108Z,1002.92
2018-03-18T01:12:39.092Z,1002.88
2018-03-18T01:13:39.079Z,1002.94
2018-03-18T01:14:39.063Z,1003.02
2018-03-18T01:15:39.048Z,1003.12
2018-03-18T01:16:39.030Z,1003.03
2018-03-18T01:17:39.017Z,1002.76
2018-03-18T01:18:38.996Z,1002.84
2018-03-18T01:19:38.983Z,1002.86
2018-03-18T01:20:38.965Z,1003.02
2018-03-18T01:21:38.951Z,1002.88
2018-03-18T01:22:38.937Z,1002.80
2018-03-18T01:23:38.919Z,1003.03
2018-03-18T01:24:38.909Z,1002.97
2018-03-18T01:25:38.883Z,1002.88
2018-03-18T01:26:38.872Z,1002.98
2018-03-18T01:27:38.857Z,1002.96
2018-03-18T01:28:38.845Z,1003.04
2018-03-18T01:29:38.828Z,1002.94
2018-03-18T01:30:38.809Z,1003.01
2018-03-18T01:31:38.796Z,1003.00
2018-03-18T01:32:38.777Z,1002.83
2018-03-18T01:33:38.759Z,1002.93
2018-03-18T01:34:38.746Z,1002.91
2018-03-18T01:35:38.731Z,1002.91
2018-03-18T01:36:38.715Z,1002.92
2018-03-18T01:37:38.698Z,1002.85
2018-03-18T01:38:38.684Z,1002.83
2018-03-18T01:39:38.663Z,1002.88
2018-03-18T01:40:38.650Z,1002.85
2018-03-18T01:41:38.637Z,1002.80
2018-03-18T01:42:38.616Z,1002.81
2018-03-18T01:43:38.603Z,1002.84
2018-03-18T01:44:38.590Z,1002.84
2018-03-18T01:45:38.575Z,1002.77
2018-03-18T01:46:38.552Z,1002.93
2018-03-18T01:47:38.541Z,1002.86
2018-03-18T01:48:38.523Z,1002.80
2018-03-18T01:49:38.509Z,1002.64
2018-03-18T01:50:38.494Z,1002.74
2018-03-18T01:51:38.478Z,1002.81
2018-03-18T01:52:38.460Z,1002.82
2018-03-18T01:53:38.444Z,1002.97
2018-03-18T01:54:38.429Z,1002.82
2018-03-18T01:55:38.416Z,1002.80
2018-03-18T01:56:38.395Z,1002.90
2018-03-18T01:57:38.382Z,1002.81
2018-03-18T01:58:38.362Z,1002.88
2018-03-18T01:59:38.351Z,1002.83
2018-03-18T02:00:38.338Z,1002.80
2018-03-18T02:01:38.317Z,1002.76
2018-03-18T02:02:38.300Z,1002.75
2018-03-18T02:03:38.285Z,1002.77
2018-03-18T02:04:38.267Z,1002.76
2018-03-18T02:05:38.253Z,1002.78
2018-03-18T02:06:38.232Z,1002.76
2018-03-18T02:07:38.222Z,1002.77
2018-03-18T02:08:38.205Z,1002.71
2018-03-18T02:09:38.190Z,1002.73
2018-03-18T02:10:38.172Z,1002.77
2018-03-18T02:11:38.162Z,1002.73
2018-03-18T02:12:38.142Z,1002.77
2018-03-18T02:13:38.129Z,1002.66
2018-03-18T02:14:38.116Z,1002.72
2018-03-18T02:15:38.090Z,1002.68
2018-03-18T02:16:38.078Z,1002.79
2018-03-18T02:17:38.059Z,1002.72
2018-03-18T02:18:38.049Z,1002.79
2018-03-18T02:19:38.031Z,1002.72
2018-03-18T02:20:38.021Z,1002.75
2018-03-18T02:21:37.996Z,1002.60
2018-03-18T02:22:37.983Z,1002.73
2018-03-18T02:23:37.968Z,1002.72
2018-03-18T02:24:37.947Z,1002.68
2018-03-18T02:25:37.932Z,1002.71
2018-03-18T02:26:37.917Z,1002.66
2018-03-18T02:27:37.900Z,1002.66
2018-03-18T02:28:37.887Z,1002.69
2018-03-18T02:29:37.870Z,1002.75
2018-03-18T02:30:37.852Z,1002.75
2018-03-18T02:31:37.840Z,1002.69
2018-03-18T02:32:37.824Z,1002.79
2018-03-18T02:33:37.807Z,1002.79
2018-03-18T02:34:37.791Z,1002.76
2018-03-18T02:35:37.774Z,1002.79
2018-03-18T02:36:37.760Z,1002.73
2018-03-18T02:37:37.741Z,1002.76
2018-03-18T02:38:37.728Z,1002.79
2018-03-18T02:39:37.711Z,1002.57
2018-03-18T02:40:37.701Z,1002.65
2018-03-18T02:41:37.675Z,1002.58
2018-03-18T02:42:37.666Z,1002.62
2018-03-18T02:43:37.650Z,1002.66
2018-03-18T02:44:37.630Z,1002.60
2018-03-18T02:45:37.620Z,1002.65
2018-03-18T02:46:37.597Z,1002.71
2018-03-18T02:47:37.582Z,1002.78
2018-03-18T02:48:37.567Z,1002.64
2018-03-18T02:49:37.553Z,1002.69
2018-03-18T02:50:37.534Z,1002.54
2018-03-18T02:51:37.519Z,1002.56
2018-03-18T02:52:37.503Z,1002.61
2018-03-18T02:53:37.487Z,1002.58
2018-03-18T02:54:37.469Z,1002.55
2018-03-18T02:55:37.473Z,1002.54
2018-03-18T02:56:37.438Z,1002.56
2018-03-18T02:57:37.424Z,1002.74
2018-03-18T02:58:37.406Z,1002.49
2018-03-18T02:59:37.391Z,1002.56
2018-03-18T03:00:37.377Z,1002.49
2018-03-18T03:01:37.359Z,1002.66
2018-03-18T03:02:37.342Z,1002.43
2018-03-18T03:03:37.323Z,1002.62
2018-03-18T03:04:37.309Z,1002.57
2018-03-18T03:05:37.297Z,1002.59
2018-03-18T03:06:37.277Z,1002.56
2018-03-18T03:07:37.266Z,1002.56
2018-03-18T03:08:37.998Z,1002.68
2018-03-18T03:09:37.228Z,1002.60
2018-03-18T03:10:37.210Z,1002.56
2018-03-18T03:11:37.200Z,1002.65
2018-03-18T03:12:37.176Z,1002.60
2018-03-18T03:13:37.173Z,1002.55
2018-03-18T03:14:37.152Z,1002.67
2018-03-18T03:15:37.130Z,1002.62
2018-03-18T03:16:37.115Z,1002.61
2018-03-18T03:17:37.096Z,1002.66
2018-03-18T03:18:37.089Z,1002.57
2018-03-18T03:19:37.065Z,1002.59
2018-03-18T03:20:37.051Z,1002.58
2018-03-18T03:21:37.072Z,1002.69
2018-03-18T03:22:37.016Z,1002.68
2018-03-18T03:23:36.994Z,1002.64
2018-03-18T03:24:36.980Z,1002.70
2018-03-18T03:25:36.997Z,1002.64
2018-03-18T03:26:36.949Z,1002.61
2018-03-18T03:27:36.936Z,1002.71
2018-03-18T03:28:36.917Z,1002.62
2018-03-18T03:29:36.906Z,1002.64
2018-03-18T03:30:38.493Z,1002.63
2018-03-18T03:31:36.872Z,1002.63
2018-03-18T03:32:36.854Z,1002.65
2018-03-18T03:33:36.838Z,1002.62
2018-03-18T03:34:36.821Z,1002.68
2018-03-18T03:35:36.805Z,1002.73
2018-03-18T03:36:38.495Z,1002.62
2018-03-18T03:37:36.774Z,1002.59
2018-03-18T03:38:36.756Z,1002.68
2018-03-18T03:39:36.743Z,1002.56
2018-03-18T03:40:36.724Z,1002.71
2018-03-18T03:41:36.708Z,1002.79
2018-03-18T03:42:36.692Z,1002.72
2018-03-18T03:43:36.680Z,1002.79
2018-03-18T03:44:36.660Z,1002.72
2018-03-18T03:45:36.690Z,1002.78
2018-03-18T03:46:36.628Z,1002.74
2018-03-18T03:47:36.612Z,1002.75
2018-03-18T03:48:36.622Z,1002.74
2018-03-18T03:49:36.579Z,1002.74
2018-03-18T03:50:36.562Z,1002.79
2018-03-18T03:51:38.488Z,1002.81
2018-03-18T03:52:36.528Z,1002.80
2018-03-18T03:53:36.514Z,1003.04
2018-03-18T03:54:36.497Z,1002.82
2018-03-18T03:55:36.488Z,1002.76
2018-03-18T03:56:36.464Z,1002.91
2018-03-18T03:57:36.445Z,1002.75
2018-03-18T03:58:36.431Z,1002.90
2018-03-18T03:59:36.414Z,1002.93
2018-03-18T04:00:36.400Z,1002.91
2018-03-18T04:01:36.386Z,1002.70
2018-03-18T04:02:36.364Z,1002.84
2018-03-18T04:03:36.349Z,1002.80
2018-03-18T04:04:36.336Z,1002.84
2018-03-18T04:05:36.318Z,1002.92
2018-03-18T04:06:36.298Z,1002.98
2018-03-18T04:07:36.284Z,1002.92
2018-03-18T04:08:36.268Z,1002.87
2018-03-18T04:09:36.253Z,1002.62
2018-03-18T04:10:36.232Z,1002.93
2018-03-18T04:11:36.221Z,1003.03
2018-03-18T04:12:36.202Z,1002.87
2018-03-18T04:13:36.184Z,1002.87
2018-03-18T04:14:36.168Z,1002.87
2018-03-18T04:15:36.151Z,1002.86
2018-03-18T04:16:36.133Z,1003.02
2018-03-18T04:17:36.119Z,1003.08
2018-03-18T04:18:36.103Z,1003.10
2018-03-18T04:19:36.088Z,1002.94
2018-03-18T04:20:37.986Z,1002.93
2018-03-18T04:21:36.053Z,1003.06
2018-03-18T04:22:36.038Z,1003.05
2018-03-18T04:23:36.025Z,1002.99
2018-03-18T04:24:36.004Z,1002.75
2018-03-18T04:25:36.000Z,1002.99
2018-03-18T04:26:35.969Z,1002.98
2018-03-18T04:27:35.955Z,1003.08
2018-03-18T04:28:35.936Z,1002.86
2018-03-18T04:29:35.920Z,1003.02
2018-03-18T04:30:35.907Z,1003.16
2018-03-18T04:31:35.890Z,1002.86
2018-03-18T04:32:35.868Z,1002.98
2018-03-18T04:33:35.859Z,1003.05
2018-03-18T04:34:35.838Z,1002.90
2018-03-18T04:35:35.825Z,1002.98
2018-03-18T04:36:35.806Z,1002.95
2018-03-18T04:37:35.793Z,1003.03
2018-03-18T04:38:35.775Z,1003.05
2018-03-18T04:39:35.754Z,1002.77
2018-03-18T04:40:35.738Z,1003.14
2018-03-18T04:41:35.724Z,1002.99
2018-03-18T04:42:35.709Z,1003.05
2018-03-18T04:43:35.690Z,1003.11
2018-03-18T04:44:35.676Z,1003.01
2018-03-18T04:45:35.661Z,1003.08
2018-03-18T04:46:35.646Z,1003.07
2018-03-18T04:47:35.628Z,1003.10
2018-03-18T04:48:35.608Z,1003.02
2018-03-18T04:49:35.619Z,1003.02
2018-03-18T04:50:35.578Z,1003.11
2018-03-18T04:51:35.563Z,1003.04
2018-03-18T04:52:35.546Z,1003.02
2018-03-18T04:53:35.526Z,1003.09
2018-03-18T04:54:35.508Z,1003.04
2018-03-18T04:55:35.492Z,1003.06
2018-03-18T04:56:35.480Z,1003.09
2018-03-18T04:57:35.461Z,1003.04
2018-03-18T04:58:35.441Z,1002.87
2018-03-18T04:59:35.427Z,1003.03
2018-03-18T05:00:35.412Z,1003.10
2018-03-18T05:01:35.396Z,1003.09
2018-03-18T05:02:35.379Z,1003.05
2018-03-18T05:03:35.362Z,1003.10
2018-03-18T05:04:35.346Z,1003.15
2018-03-18T05:05:35.332Z,1003.06
2018-03-18T05:06:35.313Z,1003.10
2018-03-18T05:07:35.297Z,1003.15
2018-03-18T05:08:35.284Z,1003.18
2018-03-18T05:09:35.264Z,1003.24
2018-03-18T05:10:35.247Z,1003.18
2018-03-18T05:11:35.228Z,1003.00
2018-03-18T05:12:35.216Z,1003.04
2018-03-18T05:13:35.200Z,1003.05
2018-03-18T05:14:35.179Z,1003.15
2018-03-18T05:15:35.164Z,1003.12
2018-03-18T05:16:35.150Z,1003.15
2018-03-18T05:17:35.130Z,1003.21
2018-03-18T05:18:35.113Z,1003.15
2018-03-18T05:19:35.098Z,1003.09
2018-03-18T05:20:35.080Z,1003.14
2018-03-18T05:21:35.118Z,1003.08
2018-03-18T05:22:35.053Z,1003.04
2018-03-18T05:23:35.030Z,1003.25
2018-03-18T05:24:36.976Z,1003.06
2018-03-18T05:25:34.996Z,1003.20
2018-03-18T05:26:34.981Z,1003.14
2018-03-18T05:27:34.967Z,1003.13
2018-03-18T05:28:34.955Z,1003.10
2018-03-18T05:29:34.934Z,1003.02
2018-03-18T05:30:34.915Z,1003.22
2018-03-18T05:31:34.902Z,1003.00
2018-03-18T05:32:34.880Z,1003.32
2018-03-18T05:33:34.868Z,1003.21
2018-03-18T05:34:34.849Z,1003.23
2018-03-18T05:35:34.832Z,1003.24
2018-03-18T05:36:34.815Z,1003.26
2018-03-18T05:37:34.798Z,1003.22
2018-03-18T05:38:34.785Z,1003.26
2018-03-18T05:39:34.780Z,1003.27
2018-03-18T05:40:34.748Z,1003.26
2018-03-18T05:41:34.728Z,1003.29
2018-03-18T05:42:34.713Z,1003.41
2018-03-18T05:43:34.698Z,1003.29
2018-03-18T05:44:34.682Z,1003.29
2018-03-18T05:45:34.667Z,1003.37
2018-03-18T05:46:34.649Z,1003.28
2018-03-18T05:47:34.630Z,1003.44
2018-03-18T05:48:34.615Z,1003.29
2018-03-18T05:49:34.604Z,1003.36
2018-03-18T05:50:34.580Z,1003.33
2018-03-18T05:51:34.573Z,1003.34
2018-03-18T05:52:34.547Z,1003.32
2018-03-18T05:53:34.535Z,1003.40
2018-03-18T05:54:34.515Z,1003.31
2018-03-18T05:55:34.496Z,1003.40
2018-03-18T05:56:34.494Z,1003.35
2018-03-18T05:57:34.464Z,1003.37
2018-03-18T05:58:34.453Z,1003.38
2018-03-18T05:59:34.427Z,1003.37
2018-03-18T06:00:34.416Z,1003.39
2018-03-18T06:01:34.398Z,1003.47
2018-03-18T06:02:34.381Z,1003.48
2018-03-18T06:03:34.368Z,1003.54
2018-03-18T06:04:34.351Z,1003.48
2018-03-18T06:05:34.332Z,1003.50
2018-03-18T06:06:34.318Z,1003.46
2018-03-18T06:07:34.311Z,1003.47
2018-03-18T06:08:34.284Z,1003.44
2018-03-18T06:09:34.260Z,1003.47
2018-03-18T06:10:34.254Z,1003.64
2018-03-18T06:11:34.231Z,1003.52
2018-03-18T06:12:34.276Z,1003.35
2018-03-18T06:13:34.203Z,1003.47
2018-03-18T06:14:34.181Z,1003.46
2018-03-18T06:15:34.167Z,1003.52
2018-03-18T06:16:34.155Z,1003.57
2018-03-18T06:17:34.136Z,1003.64
2018-03-18T06:18:34.118Z,1003.51
2018-03-18T06:19:34.105Z,1003.46
2018-03-18T06:20:34.085Z,1003.44
2018-03-18T06:21:34.071Z,1003.52
2018-03-18T06:22:34.053Z,1003.45
2018-03-18T06:23:34.038Z,1003.44
2018-03-18T06:24:34.023Z,1003.60
2018-03-18T06:25:34.005Z,1003.71
2018-03-18T06:26:33.992Z,1003.57
2018-03-18T06:27:33.970Z,1003.54
2018-03-18T06:28:33.954Z,1003.51
2018-03-18T06:29:33.936Z,1003.44
2018-03-18T06:30:33.922Z,1003.58
2018-03-18T06:31:33.903Z,1003.53
2018-03-18T06:32:33.892Z,1003.57
2018-03-18T06:33:33.882Z,1003.43
2018-03-18T06:34:33.857Z,1003.58
2018-03-18T06:35:33.837Z,1003.60
2018-03-18T06:36:33.823Z,1003.54
2018-03-18T06:37:33.836Z,1003.52
2018-03-18T06:38:33.790Z,1003.56
2018-03-18T06:39:33.777Z,1003.56
2018-03-18T06:40:33.756Z,1003.62
2018-03-18T06:41:33.738Z,1003.82
2018-03-18T06:42:33.725Z,1003.63
2018-03-18T06:43:33.710Z,1003.63
2018-03-18T06:44:33.692Z,1003.62
2018-03-18T06:45:33.674Z,1003.66
2018-03-18T06:46:33.663Z,1003.72
2018-03-18T06:47:35.464Z,1003.58
2018-03-18T06:48:33.628Z,1003.82
2018-03-18T06:49:33.615Z,1003.70
2018-03-18T06:50:33.618Z,1003.68
2018-03-18T06:51:33.578Z,1003.70
2018-03-18T06:52:33.569Z,1003.74
2018-03-18T06:53:33.548Z,1003.80
2018-03-18T06:54:33.532Z,1003.71
2018-03-18T06:55:33.514Z,1003.77
2018-03-18T06:56:33.500Z,1003.75
2018-03-18T06:57:33.488Z,1003.58
2018-03-18T06:58:33.465Z,1003.74
2018-03-18T06:59:33.449Z,1003.74
2018-03-18T07:00:33.434Z,1004.00
2018-03-18T07:01:33.426Z,1003.89
2018-03-18T07:02:33.406Z,1004.02
2018-03-18T07:03:33.387Z,1003.77
2018-03-18T07:04:33.371Z,1003.80
2018-03-18T07:05:33.358Z,1003.82
2018-03-18T07:06:33.340Z,1003.85
2018-03-18T07:07:33.325Z,1003.90
2018-03-18T07:08:33.308Z,1003.99
2018-03-18T07:09:33.294Z,1004.02
2018-03-18T07:10:33.274Z,1003.90
2018-03-18T07:11:33.257Z,1003.87
2018-03-18T07:12:33.245Z,1003.82
2018-03-18T07:13:33.226Z,1003.78
2018-03-18T07:14:33.211Z,1003.92
2018-03-18T07:15:34.956Z,1003.96
2018-03-18T07:16:33.181Z,1003.85
2018-03-18T07:17:33.164Z,1003.89
2018-03-18T07:18:33.146Z,1003.94
2018-03-18T07:19:33.135Z,1003.98
2018-03-18T07:20:33.116Z,1003.92
2018-03-18T07:21:33.101Z,1003.95
2018-03-18T07:22:33.084Z,1003.90
2018-03-18T07:23:33.072Z,1004.10
2018-03-18T07:24:33.053Z,1004.07
2018-03-18T07:25:33.066Z,1003.96
2018-03-18T07:26:33.022Z,1004.04
2018-03-18T07:27:34.959Z,1004.03
2018-03-18T07:28:32.991Z,1004.04
2018-03-18T07:29:32.974Z,1004.02
2018-03-18T07:30:32.958Z,1004.16
2018-03-18T07:31:32.943Z,1003.65
2018-03-18T07:32:32.928Z,1004.04
2018-03-18T07:33:32.908Z,1004.13
2018-03-18T07:34:32.891Z,1004.02
2018-03-18T07:35:32.880Z,1004.24
2018-03-18T07:36:32.864Z,1004.13
2018-03-18T07:37:32.849Z,1004.13
2018-03-18T07:38:32.894Z,1004.22
2018-03-18T07:39:32.818Z,1004.20
2018-03-18T07:40:32.802Z,1004.14
2018-03-18T07:41:32.790Z,1004.21
2018-03-18T07:42:32.771Z,1004.24
2018-03-18T07:43:32.755Z,1004.32
2018-03-18T07:44:32.738Z,1004.05
2018-03-18T07:45:32.720Z,1004.26
2018-03-18T07:46:32.707Z,1004.03
2018-03-18T07:47:32.692Z,1004.24
2018-03-18T07:48:32.678Z,1004.24
2018-03-18T07:49:32.665Z,1004.18
2018-03-18T07:50:32.652Z,1004.09
2018-03-18T07:51:32.629Z,1004.19
2018-03-18T07:52:32.615Z,1004.14
2018-03-18T07:53:32.620Z,1004.18
2018-03-18T07:54:32.588Z,1004.25
2018-03-18T07:55:32.573Z,1004.33
2018-03-18T07:56:32.552Z,1004.28
2018-03-18T07:57:32.537Z,1004.00
2018-03-18T07:58:32.520Z,1004.28
2018-03-18T07:59:34.458Z,1004.27
2018-03-18T08:00:32.491Z,1004.27
2018-03-18T08:01:32.476Z,1004.36
2018-03-18T08:02:32.463Z,1004.31
2018-03-18T08:03:32.444Z,1004.37
2018-03-18T08:04:32.427Z,1004.34
2018-03-18T08:05:32.419Z,1004.39
2018-03-18T08:06:32.400Z,1004.33
2018-03-18T08:07:32.413Z,1004.28
2018-03-18T08:08:32.367Z,1004.45
2018-03-18T08:09:32.354Z,1004.43
2018-03-18T08:10:32.337Z,1004.31
2018-03-18T08:11:32.322Z,1004.40
2018-03-18T08:12:32.311Z,1004.48
2018-03-18T08:13:32.291Z,1004.38
2018-03-18T08:14:32.277Z,1004.41
2018-03-18T08:15:32.263Z,1004.45
2018-03-18T08:16:33.956Z,1004.31
2018-03-18T08:17:32.231Z,1004.34
2018-03-18T08:18:32.215Z,1004.38
2018-03-18T08:19:32.196Z,1004.45
2018-03-18T08:20:32.182Z,1004.40
2018-03-18T08:21:32.182Z,1004.43
2018-03-18T08:22:32.161Z,1004.54
2018-03-18T08:23:32.143Z,1004.54
2018-03-18T08:24:32.126Z,1004.47
2018-03-18T08:25:32.112Z,1004.35
2018-03-18T08:26:32.100Z,1004.44
2018-03-18T08:27:33.950Z,1004.17
2018-03-18T08:28:32.067Z,1004.52
2018-03-18T08:29:32.053Z,1004.51
2018-03-18T08:30:32.041Z,1004.47
2018-03-18T08:31:32.025Z,1004.49
2018-03-18T08:32:32.009Z,1004.45
2018-03-18T08:33:31.994Z,1004.52
2018-03-18T08:34:31.980Z,1004.49
2018-03-18T08:35:31.964Z,1004.45
2018-03-18T08:36:33.452Z,1004.49
2018-03-18T08:37:31.936Z,1004.49
2018-03-18T08:38:31.918Z,1004.49
2018-03-18T08:39:31.905Z,1004.54
2018-03-18T08:40:31.888Z,1004.56
2018-03-18T08:41:31.874Z,1004.55
2018-03-18T08:42:31.857Z,1004.51
2018-03-18T08:43:31.845Z,1004.33
2018-03-18T08:44:31.835Z,1004.51
2018-03-18T08:45:31.817Z,1004.52
2018-03-18T08:46:31.798Z,1004.51
2018-03-18T08:47:31.794Z,1004.53
2018-03-18T08:48:31.776Z,1004.66
2018-03-18T08:49:31.799Z,1004.59
2018-03-18T08:50:31.742Z,1004.55
2018-03-18T08:51:31.733Z,1004.55
2018-03-18T08:52:31.715Z,1004.58
2018-03-18T08:53:31.699Z,1004.58
2018-03-18T08:54:31.685Z,1004.50
2018-03-18T08:55:31.674Z,1004.55
2018-03-18T08:56:31.656Z,1004.61
2018-03-18T08:57:31.649Z,1004.47
2018-03-18T08:58:31.634Z,1004.60
2018-03-18T08:59:31.615Z,1004.63
2018-03-18T09:00:31.601Z,1004.51
2018-03-18T09:01:31.588Z,1004.56
2018-03-18T09:02:31.574Z,1004.49
2018-03-18T09:03:31.572Z,1004.65
2018-03-18T09:04:31.545Z,1004.65
2018-03-18T09:05:31.531Z,1004.78
2018-03-18T09:06:31.515Z,1004.58
2018-03-18T09:07:31.501Z,1004.67
2018-03-18T09:08:31.489Z,1004.64
2018-03-18T09:09:31.482Z,1004.75
2018-03-18T09:10:31.459Z,1004.70
2018-03-18T09:11:31.446Z,1004.65
2018-03-18T09:12:31.429Z,1004.73
2018-03-18T09:13:31.417Z,1004.57
2018-03-18T09:14:31.418Z,1004.64
2018-03-18T09:15:31.397Z,1004.60
2018-03-18T09:16:31.377Z,1004.64
2018-03-18T09:17:31.364Z,1004.72
2018-03-18T09:18:31.348Z,1004.71
2018-03-18T09:19:31.337Z,1004.72
2018-03-18T09:20:31.324Z,1004.71
2018-03-18T09:21:31.310Z,1004.73
2018-03-18T09:22:31.299Z,1004.62
2018-03-18T09:23:31.281Z,1004.74
2018-03-18T09:24:31.266Z,1004.58
2018-03-18T09:25:31.253Z,1004.66
2018-03-18T09:26:31.243Z,1004.66
2018-03-18T09:27:31.224Z,1004.86
2018-03-18T09:28:31.213Z,1004.61
2018-03-18T09:29:31.197Z,1004.65
2018-03-18T09:30:31.184Z,1004.63
2018-03-18T09:31:31.173Z,1004.68
2018-03-18T09:32:31.162Z,1004.65
2018-03-18T09:33:31.147Z,1004.68
2018-03-18T09:34:31.133Z,1004.71
2018-03-18T09:35:31.119Z,1004.59
2018-03-18T09:36:31.115Z,1004.68
2018-03-18T09:37:31.095Z,1004.66
2018-03-18T09:38:31.083Z,1004.59
2018-03-18T09:39:31.066Z,1004.71
2018-03-18T09:40:31.055Z,1004.69
2018-03-18T09:41:31.039Z,1004.90
2018-03-18T09:42:31.029Z,1004.69
2018-03-18T09:43:31.034Z,1004.78
2018-03-18T09:44:31.002Z,1004.67
2018-03-18T09:45:30.989Z,1004.80
2018-03-18T09:46:30.976Z,1004.68
2018-03-18T09:47:30.970Z,1004.80
2018-03-18T09:48:30.950Z,1004.79
2018-03-18T09:49:30.939Z,1004.68
2018-03-18T09:50:30.924Z,1004.78
2018-03-18T09:51:30.914Z,1004.70
2018-03-18T09:52:30.901Z,1004.74
2018-03-18T09:53:30.890Z,1004.74
2018-03-18T09:54:30.875Z,1004.81
2018-03-18T09:55:30.869Z,1004.81
2018-03-18T09:56:30.852Z,1004.76
2018-03-18T09:57:30.852Z,1004.67
2018-03-18T09:58:30.830Z,1004.74
2018-03-18T09:59:30.826Z,1004.81
2018-03-18T10:00:30.802Z,1004.85
2018-03-18T10:01:30.796Z,1004.81
2018-03-18T10:02:30.796Z,1004.84
2018-03-18T10:03:30.772Z,1004.92
2018-03-18T10:04:30.784Z,1004.99
2018-03-18T10:05:30.755Z,1004.91
2018-03-18T10:06:30.739Z,1004.93
2018-03-18T10:07:30.723Z,1004.95
2018-03-18T10:08:30.716Z,1004.84
2018-03-18T10:09:30.706Z,1004.83
2018-03-18T10:10:30.693Z,1004.89
2018-03-18T10:11:30.679Z,1004.89
2018-03-18T10:12:30.671Z,1005.04
2018-03-18T10:13:30.657Z,1004.93
2018-03-18T10:14:30.651Z,1004.87
2018-03-18T10:15:30.638Z,1005.00
2018-03-18T10:16:30.626Z,1004.94
2018-03-18T10:17:30.616Z,1005.01
2018-03-18T10:18:30.606Z,1004.96
2018-03-18T10:19:30.591Z,1005.07
2018-03-18T10:20:30.577Z,1004.95
2018-03-18T10:21:30.572Z,1004.97
2018-03-18T10:22:30.558Z,1004.94
2018-03-18T10:23:30.549Z,1004.99
2018-03-18T10:24:30.538Z,1005.22
2018-03-18T10:25:30.527Z,1004.60
2018-03-18T10:26:30.514Z,1005.09
2018-03-18T10:27:30.505Z,1005.06
2018-03-18T10:28:30.496Z,1004.96
2018-03-18T10:29:30.485Z,1004.75
2018-03-18T10:30:30.468Z,1004.99
2018-03-18T10:31:30.460Z,1004.96
2018-03-18T10:32:30.454Z,1005.05
2018-03-18T10:33:30.437Z,1005.08
2018-03-18T10:34:30.428Z,1005.09
2018-03-18T10:35:30.415Z,1004.98
2018-03-18T10:36:30.404Z,1004.89
2018-03-18T10:37:30.389Z,1005.02
2018-03-18T10:38:30.376Z,1005.01
2018-03-18T10:39:30.374Z,1004.97
2018-03-18T10:40:30.359Z,1004.73
2018-03-18T10:41:30.339Z,1005.00
2018-03-18T10:42:30.328Z,1005.12
2018-03-18T10:43:30.323Z,1004.94
2018-03-18T10:44:30.315Z,1005.00
2018-03-18T10:45:30.301Z,1004.89
2018-03-18T10:46:30.283Z,1005.01
2018-03-18T10:47:30.271Z,1005.03
2018-03-18T10:48:30.263Z,1004.87
2018-03-18T10:49:30.250Z,1004.97
2018-03-18T10:50:30.238Z,1004.98
2018-03-18T10:51:30.226Z,1004.96
2018-03-18T10:52:31.959Z,1005.03
2018-03-18T10:53:30.218Z,1005.03
2018-03-18T10:54:30.202Z,1005.00
2018-03-18T10:55:30.179Z,1004.98
2018-03-18T10:56:30.166Z,1004.80
2018-03-18T10:57:30.174Z,1004.82
2018-03-18T10:58:30.138Z,1004.90
2018-03-18T10:59:30.129Z,1004.88
2018-03-18T11:00:30.118Z,1004.67
2018-03-18T11:01:30.105Z,1004.98
2018-03-18T11:02:30.091Z,1004.97
2018-03-18T11:03:30.085Z,1004.95
2018-03-18T11:04:30.070Z,1004.91
2018-03-18T11:05:30.062Z,1005.06
2018-03-18T11:06:30.046Z,1004.89
2018-03-18T11:07:30.033Z,1004.80
2018-03-18T11:08:30.019Z,1004.63
2018-03-18T11:09:30.004Z,1004.90
2018-03-18T11:10:29.995Z,1004.97
2018-03-18T11:11:29.985Z,1004.86
2018-03-18T11:12:29.974Z,1004.98
2018-03-18T11:13:29.957Z,1005.00
2018-03-18T11:14:29.945Z,1004.94
2018-03-18T11:15:29.937Z,1004.90
2018-03-18T11:16:29.930Z,1004.92
2018-03-18T11:17:29.914Z,1004.90
2018-03-18T11:18:29.901Z,1004.91
2018-03-18T11:19:29.888Z,1004.89
2018-03-18T11:20:29.877Z,1004.86
2018-03-18T11:21:29.869Z,1004.99
2018-03-18T11:22:29.953Z,1004.88
2018-03-18T11:23:29.845Z,1004.71
2018-03-18T11:24:29.834Z,1004.75
2018-03-18T11:25:29.821Z,1004.88
2018-03-18T11:26:29.807Z,1004.79
2018-03-18T11:27:29.804Z,1004.85
2018-03-18T11:28:29.784Z,1004.93
2018-03-18T11:29:29.775Z,1004.96
2018-03-18T11:30:29.760Z,1004.84
2018-03-18T11:31:29.750Z,1004.83
2018-03-18T11:32:29.733Z,1004.84
2018-03-18T11:33:29.729Z,1004.80
2018-03-18T11:34:29.713Z,1004.85
2018-03-18T11:35:29.715Z,1004.80
2018-03-18T11:36:29.693Z,1004.89
2018-03-18T11:37:29.682Z,1004.89
2018-03-18T11:38:29.674Z,1004.84
2018-03-18T11:39:29.655Z,1004.79
2018-03-18T11:40:29.649Z,1004.87
2018-03-18T11:41:29.638Z,1004.81
2018-03-18T11:42:29.626Z,1004.81
2018-03-18T11:43:29.615Z,1004.99
2018-03-18T11:44:29.610Z,1004.92
2018-03-18T11:45:29.593Z,1004.84
2018-03-18T11:46:29.580Z,1004.82
2018-03-18T11:47:29.571Z,1004.74
2018-03-18T11:48:29.559Z,1004.81
2018-03-18T11:49:29.554Z,1004.85
2018-03-18T11:50:29.541Z,1004.86
2018-03-18T11:51:29.529Z,1004.87
2018-03-18T11:52:29.519Z,1004.81
2018-03-18T11:53:29.506Z,1004.98
2018-03-18T11:54:29.497Z,1004.91
2018-03-18T11:55:29.483Z,1004.90
2018-03-18T11:56:29.473Z,1004.83
2018-03-18T11:57:29.464Z,1004.89
2018-03-18T11:58:29.454Z,1005.04
2018-03-18T11:59:29.443Z,1005.14
2018-03-18T12:00:29.440Z,1005.06
2018-03-18T12:01:29.421Z,1005.04
2018-03-18T12:02:29.416Z,1004.95
2018-03-18T12:03:29.400Z,1004.90
2018-03-18T12:04:29.389Z,1004.96
2018-03-18T12:05:29.381Z,1004.92